createdAt,value
2022-12-06T00:01:14.598Z,12.40
2022-12-06T00:03:42.739Z,12.18
2022-12-06T00:06:12.230Z,11.40
2022-12-06T00:08:39.828Z,12.13
2022-12-06T00:11:12.952Z,11.25
2022-12-06T00:13:40.962Z,11.75
2022-12-06T00:16:10.848Z,11.30
2022-12-06T00:18:39.423Z,12.45
2022-12-06T00:21:13.840Z,11.35
2022-12-06T00:23:43.766Z,11.88
2022-12-06T00:26:11.046Z,12.13
2022-12-06T00:28:38.920Z,11.38
2022-12-06T00:31:08.657Z,11.32
2022-12-06T00:33:36.813Z,12.23
2022-12-06T00:36:06.706Z,10.73
2022-12-06T00:38:35.068Z,11.18
2022-12-06T00:41:04.959Z,10.68
2022-12-06T00:43:33.164Z,11.23
2022-12-06T00:46:00.707Z,10.35
2022-12-06T00:48:29.223Z,10.75
2022-12-06T00:50:56.264Z,10.65
2022-12-06T00:53:23.726Z,10.93
2022-12-06T00:55:51.362Z,10.00
2022-12-06T00:58:19.187Z,10.45
2022-12-06T01:00:47.157Z,10.55
2022-12-06T01:03:14.431Z,9.88
2022-12-06T01:05:46.903Z,9.88
2022-12-06T01:08:14.659Z,11.10
2022-12-06T01:10:43.097Z,9.88
2022-12-06T01:13:10.199Z,9.77
2022-12-06T01:15:37.957Z,9.95
2022-12-06T01:18:05.655Z,10.35
2022-12-06T01:20:32.684Z,9.48
2022-12-06T01:23:00.107Z,9.70
2022-12-06T01:25:29.549Z,10.73
2022-12-06T01:27:59.813Z,9.13
2022-12-06T01:30:26.945Z,9.45
2022-12-06T01:32:54.048Z,9.75
2022-12-06T01:35:21.103Z,10.07
2022-12-06T01:37:48.117Z,9.45
2022-12-06T01:40:15.204Z,9.07
2022-12-06T01:42:42.206Z,9.65
2022-12-06T01:45:10.415Z,9.57
2022-12-06T01:47:43.916Z,9.02
2022-12-06T01:50:23.481Z,9.45
2022-12-06T01:53:05.671Z,9.57
2022-12-06T01:55:37.475Z,9.45
2022-12-06T01:58:13.060Z,9.35
2022-12-06T02:00:40.139Z,9.23
2022-12-06T02:03:10.698Z,9.30
2022-12-06T02:08:10.080Z,8.98
2022-12-06T02:10:38.006Z,8.45
2022-12-06T02:13:06.608Z,8.77
2022-12-06T02:16:02.949Z,8.80
2022-12-06T02:19:09.243Z,9.07
2022-12-06T02:22:03.778Z,8.68
2022-12-06T02:24:58.815Z,8.68
2022-12-06T02:28:06.220Z,9.07
2022-12-06T02:30:45.484Z,8.43
2022-12-06T02:33:23.099Z,8.32
2022-12-06T02:36:02.888Z,8.40
2022-12-06T02:38:49.155Z,8.30
2022-12-06T02:41:39.019Z,8.07
2022-12-06T02:44:12.961Z,8.23
2022-12-06T02:46:41.622Z,8.75
2022-12-06T02:49:10.675Z,8.10
2022-12-06T02:51:38.973Z,7.60
2022-12-06T02:54:10.150Z,7.72
2022-12-06T02:56:37.382Z,7.45
2022-12-06T02:59:05.811Z,7.82
2022-12-06T03:01:41.580Z,8.25
2022-12-06T03:04:46.329Z,8.18
2022-12-06T03:07:43.024Z,7.68
2022-12-06T03:10:25.400Z,7.35
2022-12-06T03:13:16.615Z,8.23
2022-12-06T03:16:00.331Z,7.95
2022-12-06T03:18:47.964Z,7.53
2022-12-06T03:21:22.818Z,8.02
2022-12-06T03:23:51.580Z,7.07
2022-12-06T03:26:27.661Z,6.82
2022-12-06T03:28:58.107Z,7.38
2022-12-06T03:31:27.583Z,7.65
2022-12-06T03:34:01.211Z,7.80
2022-12-06T03:36:30.695Z,6.82
2022-12-06T03:39:03.365Z,7.78
2022-12-06T03:41:35.848Z,7.28
2022-12-06T03:44:03.028Z,6.95
2022-12-06T03:46:44.839Z,6.95
2022-12-06T03:49:24.786Z,6.72
2022-12-06T03:51:52.509Z,6.57
2022-12-06T03:54:19.632Z,7.40
2022-12-06T03:56:46.677Z,6.70
2022-12-06T03:59:13.785Z,6.90
2022-12-06T04:01:41.107Z,7.00
2022-12-06T04:04:09.605Z,6.40
2022-12-06T04:06:36.781Z,7.15
2022-12-06T04:09:23.974Z,6.15
2022-12-06T04:11:50.955Z,6.70
2022-12-06T04:14:18.783Z,6.43
2022-12-06T04:17:05.627Z,8.10
2022-12-06T04:19:32.882Z,7.15
2022-12-06T04:22:19.720Z,7.30
2022-12-06T04:24:47.568Z,7.70
2022-12-06T04:27:34.421Z,7.05
2022-12-06T04:30:21.364Z,6.70
2022-12-06T04:33:08.264Z,6.15
2022-12-06T04:35:56.153Z,6.50
2022-12-06T04:38:43.061Z,6.28
2022-12-06T04:41:11.657Z,6.45
2022-12-06T04:43:45.050Z,7.18
2022-12-06T04:46:15.799Z,6.05
2022-12-06T04:48:42.974Z,7.05
2022-12-06T04:51:13.126Z,6.90
2022-12-06T04:53:40.465Z,6.68
2022-12-06T04:56:07.494Z,6.60
2022-12-06T04:58:34.932Z,6.40
2022-12-06T05:01:02.191Z,6.47
2022-12-06T05:03:29.366Z,7.10
2022-12-06T05:05:56.561Z,6.72
2022-12-06T05:08:23.812Z,6.25
2022-12-06T05:10:51.233Z,6.43
2022-12-06T05:13:20.136Z,6.78
2022-12-06T05:15:58.518Z,6.07
2022-12-06T05:18:26.700Z,6.22
2022-12-06T05:21:07.419Z,6.25
2022-12-06T05:23:34.965Z,6.45
2022-12-06T05:26:04.820Z,6.32
2022-12-06T05:28:32.999Z,6.18
2022-12-06T05:31:00.030Z,6.97
2022-12-06T05:33:27.180Z,6.22
2022-12-06T05:35:54.697Z,7.15
2022-12-06T05:38:22.605Z,7.45
2022-12-06T05:40:50.555Z,7.75
2022-12-06T05:43:17.862Z,8.23
2022-12-06T05:45:45.041Z,8.98
2022-12-06T05:48:12.098Z,8.00
2022-12-06T05:50:39.104Z,7.60
2022-12-06T05:53:06.769Z,8.27
2022-12-06T05:55:33.817Z,7.55
2022-12-06T05:58:00.831Z,8.05
2022-12-06T06:00:27.871Z,8.18
2022-12-06T06:02:54.953Z,8.45
2022-12-06T06:05:22.986Z,7.88
2022-12-06T06:07:50.026Z,8.80
2022-12-06T06:10:17.848Z,8.15
2022-12-06T06:12:45.255Z,8.60
2022-12-06T06:15:13.230Z,9.10
2022-12-06T06:17:43.216Z,8.93
2022-12-06T06:20:13.990Z,8.75
2022-12-06T06:22:42.538Z,8.82
2022-12-06T06:25:10.738Z,8.98
2022-12-06T06:27:38.546Z,8.57
2022-12-06T06:30:08.457Z,8.63
2022-12-06T06:32:35.988Z,7.80
2022-12-06T06:35:03.560Z,8.07
2022-12-06T06:37:30.606Z,8.40
2022-12-06T06:39:59.065Z,8.65
2022-12-06T06:42:26.236Z,7.70
2022-12-06T06:44:54.888Z,8.07
2022-12-06T06:47:23.072Z,8.63
2022-12-06T06:49:50.584Z,7.97
2022-12-06T06:52:17.950Z,7.25
2022-12-06T06:54:45.005Z,7.05
2022-12-06T06:57:17.326Z,7.38
2022-12-06T06:59:45.734Z,7.10
2022-12-06T07:02:14.347Z,7.72
2022-12-06T07:04:42.521Z,6.97
2022-12-06T07:07:09.550Z,6.15
2022-12-06T07:09:37.174Z,6.85
2022-12-06T07:12:04.746Z,7.32
2022-12-06T07:14:32.268Z,7.07
2022-12-06T07:16:59.394Z,6.00
2022-12-06T07:19:26.426Z,6.40
2022-12-06T07:21:54.192Z,5.97
2022-12-06T07:24:21.429Z,7.93
2022-12-06T07:26:49.554Z,6.95
2022-12-06T07:29:16.590Z,6.18
2022-12-06T07:31:43.760Z,6.93
2022-12-06T07:34:10.916Z,5.80
2022-12-06T07:36:38.022Z,5.68
2022-12-06T07:39:10.136Z,5.35
2022-12-06T07:42:00.107Z,5.88
2022-12-06T07:44:47.042Z,5.80
2022-12-06T07:47:14.045Z,5.75
2022-12-06T07:49:41.192Z,5.15
2022-12-06T07:52:08.657Z,5.22
2022-12-06T07:54:35.706Z,6.60
2022-12-06T07:57:02.702Z,6.22
2022-12-06T07:59:29.743Z,5.82
2022-12-06T08:01:56.989Z,6.28
2022-12-06T08:04:24.386Z,6.07
2022-12-06T08:06:51.538Z,5.78
2022-12-06T08:09:18.618Z,5.70
2022-12-06T08:11:45.801Z,5.88
2022-12-06T08:14:14.627Z,6.05
2022-12-06T08:16:42.045Z,5.70
2022-12-06T08:19:09.304Z,4.50
2022-12-06T08:21:36.391Z,5.40
2022-12-06T08:24:04.308Z,4.85
2022-12-06T08:26:31.460Z,5.15
2022-12-06T08:29:01.894Z,4.78
2022-12-06T08:33:55.951Z,4.75
2022-12-06T08:36:24.728Z,4.50
2022-12-06T08:38:53.081Z,5.20
2022-12-06T08:41:41.018Z,4.95
2022-12-06T08:44:12.465Z,4.50
2022-12-06T08:46:40.430Z,4.78
2022-12-06T08:49:07.576Z,4.47
2022-12-06T08:51:36.280Z,4.30
2022-12-06T08:54:04.028Z,4.50
2022-12-06T08:56:31.148Z,4.32
2022-12-06T08:58:59.198Z,3.95
2022-12-06T09:01:35.740Z,4.22
2022-12-06T09:04:06.409Z,4.20
2022-12-06T09:06:33.561Z,4.47
2022-12-06T09:09:01.260Z,3.63
2022-12-06T09:11:28.407Z,4.13
2022-12-06T09:13:55.450Z,3.97
2022-12-06T09:16:24.160Z,3.63
2022-12-06T09:18:51.959Z,4.05
2022-12-06T09:21:24.572Z,3.95
2022-12-06T09:23:54.461Z,4.15
2022-12-06T09:26:21.508Z,3.47
2022-12-06T09:28:52.360Z,3.10
2022-12-06T09:31:20.077Z,3.92
2022-12-06T09:33:47.488Z,3.25
2022-12-06T09:36:24.051Z,3.75
2022-12-06T09:38:57.307Z,3.20
2022-12-06T09:41:45.215Z,3.55
2022-12-06T09:44:41.890Z,3.60
2022-12-06T09:47:27.404Z,4.03
2022-12-06T09:50:17.010Z,3.80
2022-12-06T09:53:24.581Z,4.10
2022-12-06T09:56:14.975Z,4.05
2022-12-06T09:58:58.036Z,3.97
2022-12-06T10:01:49.962Z,4.68
2022-12-06T10:04:47.029Z,3.78
2022-12-06T10:07:45.765Z,3.70
2022-12-06T10:10:32.763Z,3.80
2022-12-06T10:13:12.300Z,3.45
2022-12-06T10:16:08.745Z,3.80
2022-12-06T10:18:53.664Z,3.78
2022-12-06T10:21:56.381Z,3.33
2022-12-06T10:25:03.241Z,3.33
2022-12-06T10:27:39.078Z,3.75
2022-12-06T10:30:12.586Z,3.40
2022-12-06T10:32:53.521Z,3.75
2022-12-06T10:35:42.412Z,4.28
2022-12-06T10:38:39.966Z,3.35
2022-12-06T10:41:30.575Z,3.65
2022-12-06T10:44:12.677Z,3.92
2022-12-06T10:47:06.813Z,3.75
2022-12-06T10:49:52.970Z,4.13
2022-12-06T10:52:47.925Z,2.92
2022-12-06T10:55:26.675Z,3.40
2022-12-06T10:58:14.999Z,3.50
2022-12-06T11:00:55.299Z,3.20
2022-12-06T11:03:44.836Z,3.65
2022-12-06T11:06:33.803Z,3.55
2022-12-06T11:09:20.858Z,2.97
2022-12-06T11:11:50.575Z,3.20
2022-12-06T11:14:43.338Z,3.10
2022-12-06T11:17:22.962Z,3.30
2022-12-06T11:20:11.452Z,3.50
2022-12-06T11:22:50.511Z,3.50
2022-12-06T11:25:55.275Z,2.90
2022-12-06T11:28:44.681Z,3.67
2022-12-06T11:31:28.228Z,2.78
2022-12-06T11:33:56.753Z,3.10
2022-12-06T11:36:26.037Z,3.20
2022-12-06T11:38:53.356Z,2.88
2022-12-06T11:41:27.551Z,2.75
2022-12-06T11:43:56.480Z,2.90
2022-12-06T11:46:24.763Z,2.90
2022-12-06T11:48:52.633Z,2.83
2022-12-06T11:51:22.857Z,2.60
2022-12-06T11:54:23.186Z,2.30
2022-12-06T11:56:50.939Z,2.70
2022-12-06T11:59:25.468Z,2.97
2022-12-06T12:01:56.151Z,2.60
2022-12-06T12:04:30.371Z,2.40
2022-12-06T12:07:02.608Z,2.95
2022-12-06T12:09:50.792Z,2.75
2022-12-06T12:12:47.545Z,2.22
2022-12-06T12:15:18.753Z,2.63
2022-12-06T12:17:49.057Z,2.53
2022-12-06T12:20:24.338Z,3.38
2022-12-06T12:23:07.210Z,2.30
2022-12-06T12:25:36.634Z,2.35
2022-12-06T12:28:24.677Z,2.07
2022-12-06T12:31:00.490Z,2.50
2022-12-06T12:33:28.962Z,2.35
2022-12-06T12:36:25.207Z,2.78
2022-12-06T12:39:04.069Z,2.50
2022-12-06T12:41:39.558Z,2.45
2022-12-06T12:44:42.494Z,2.30
2022-12-06T12:47:20.833Z,2.78
2022-12-06T12:50:20.288Z,1.90
2022-12-06T12:52:47.756Z,2.03
2022-12-06T12:55:22.710Z,2.30
2022-12-06T12:57:57.433Z,2.28
2022-12-06T13:00:35.455Z,2.13
2022-12-06T13:03:28.586Z,2.00
2022-12-06T13:05:57.690Z,2.15
2022-12-06T13:08:31.592Z,2.22
2022-12-06T13:11:02.047Z,1.70
2022-12-06T13:13:47.984Z,1.48
2022-12-06T13:16:21.143Z,1.60
2022-12-06T13:18:52.874Z,1.88
2022-12-06T13:21:33.077Z,1.77
2022-12-06T13:24:26.611Z,1.75
2022-12-06T13:27:01.974Z,1.73
2022-12-06T13:29:37.203Z,1.60
2022-12-06T13:32:13.454Z,1.25
2022-12-06T13:34:48.896Z,1.60
2022-12-06T13:37:43.230Z,1.33
2022-12-06T13:40:38.573Z,1.60
2022-12-06T13:43:26.835Z,1.58
2022-12-06T13:46:15.132Z,1.55
2022-12-06T13:48:52.039Z,1.65
2022-12-06T13:51:42.585Z,1.52
2022-12-06T13:54:30.353Z,1.70
2022-12-06T13:56:59.440Z,1.20
2022-12-06T13:59:37.080Z,1.42
2022-12-06T14:02:44.526Z,1.40
2022-12-06T14:08:17.225Z,1.20
2022-12-06T14:10:44.352Z,1.30
2022-12-06T14:13:21.885Z,1.27
2022-12-06T14:15:51.902Z,1.40
2022-12-06T14:18:23.048Z,1.52
2022-12-06T14:20:53.509Z,1.50
2022-12-06T14:26:22.901Z,1.40
2022-12-06T14:28:51.614Z,1.48
2022-12-06T14:31:23.475Z,1.52
2022-12-06T14:33:52.810Z,1.88
2022-12-06T14:36:39.100Z,2.28
2022-12-06T14:39:18.327Z,2.55
2022-12-06T14:42:16.928Z,2.30
2022-12-06T14:45:01.821Z,2.65
2022-12-06T14:47:30.018Z,2.63
2022-12-06T14:50:18.999Z,2.58
2022-12-06T14:53:05.209Z,2.92
2022-12-06T14:55:38.728Z,3.13
2022-12-06T14:58:20.176Z,3.53
2022-12-06T15:01:01.252Z,3.65
2022-12-06T15:03:33.740Z,2.72
2022-12-06T15:06:23.716Z,3.15
2022-12-06T15:09:14.590Z,4.07
2022-12-06T15:12:03.379Z,2.92
2022-12-06T15:14:48.273Z,2.45
2022-12-06T15:17:19.315Z,2.75
2022-12-06T15:19:51.527Z,2.78
2022-12-06T15:22:25.781Z,3.20
2022-12-06T15:24:58.099Z,3.97
2022-12-06T15:27:28.056Z,2.97
2022-12-06T15:29:55.674Z,3.05
2022-12-06T15:32:24.952Z,2.88
2022-12-06T15:34:51.964Z,3.08
2022-12-06T15:37:39.259Z,3.38
2022-12-06T15:40:08.082Z,3.85
2022-12-06T15:42:36.131Z,3.50
2022-12-06T15:45:03.549Z,3.53
2022-12-06T15:47:31.504Z,3.45
2022-12-06T15:49:58.667Z,2.88
2022-12-06T15:52:26.862Z,3.00
2022-12-06T15:54:53.943Z,3.92
2022-12-06T15:57:21.006Z,3.20
2022-12-06T15:59:48.856Z,4.03
2022-12-06T16:02:18.430Z,4.00
2022-12-06T16:04:48.537Z,3.67
2022-12-06T16:07:19.018Z,3.22
2022-12-06T16:09:46.810Z,3.80
2022-12-06T16:12:13.834Z,4.13
2022-12-06T16:14:41.074Z,3.90
2022-12-06T16:17:08.360Z,4.05
2022-12-06T16:19:55.469Z,3.88
2022-12-06T16:22:42.404Z,5.32
2022-12-06T16:25:09.982Z,4.40
2022-12-06T16:27:36.975Z,3.85
2022-12-06T16:30:05.694Z,5.00
2022-12-06T16:32:33.336Z,4.97
2022-12-06T16:35:00.604Z,4.80
2022-12-06T16:37:27.972Z,3.88
2022-12-06T16:39:54.957Z,4.45
2022-12-06T16:42:22.789Z,4.57
2022-12-06T16:44:52.771Z,4.90
2022-12-06T16:49:48.448Z,4.80
2022-12-06T16:52:16.940Z,5.85
2022-12-06T16:54:44.395Z,7.00
2022-12-06T16:57:12.813Z,9.05
2022-12-06T16:59:40.661Z,7.97
2022-12-06T17:02:27.929Z,7.45
2022-12-06T17:04:56.920Z,9.45
2022-12-06T17:07:24.596Z,8.50
2022-12-06T17:09:51.689Z,10.07
2022-12-06T17:12:19.141Z,9.52
2022-12-06T17:14:46.738Z,10.52
2022-12-06T17:17:15.777Z,11.13
2022-12-06T17:19:43.643Z,11.27
2022-12-06T17:22:12.759Z,12.30
2022-12-06T17:24:42.160Z,12.27
2022-12-06T17:27:09.774Z,12.88
2022-12-06T17:29:37.269Z,13.45
2022-12-06T17:32:04.520Z,13.35
2022-12-06T17:34:31.696Z,12.73
2022-12-06T17:36:59.383Z,14.25
2022-12-06T17:39:26.948Z,14.48
2022-12-06T17:42:13.801Z,13.75
2022-12-06T17:44:40.811Z,14.57
2022-12-06T17:47:11.005Z,14.48
2022-12-06T17:49:38.564Z,14.68
2022-12-06T17:52:06.015Z,15.32
2022-12-06T17:54:33.174Z,16.10
2022-12-06T17:57:00.259Z,14.10
2022-12-06T17:59:30.376Z,15.40
2022-12-06T18:02:17.863Z,15.60
2022-12-06T18:04:47.591Z,15.35
2022-12-06T18:07:15.821Z,15.88
2022-12-06T18:09:42.917Z,15.70
2022-12-06T18:12:12.222Z,15.93
2022-12-06T18:14:39.365Z,15.27
2022-12-06T18:17:06.516Z,16.70
2022-12-06T18:19:34.130Z,16.55
2022-12-06T18:22:01.376Z,15.27
2022-12-06T18:24:33.592Z,15.23
2022-12-06T18:27:02.775Z,16.15
2022-12-06T18:29:30.015Z,16.23
2022-12-06T18:31:57.762Z,17.25
2022-12-06T18:34:25.021Z,16.88
2022-12-06T18:36:52.275Z,15.75
2022-12-06T18:39:26.631Z,17.35
2022-12-06T18:41:54.829Z,16.38
2022-12-06T18:44:22.327Z,16.92
2022-12-06T18:46:49.367Z,18.42
2022-12-06T18:49:16.493Z,17.77
2022-12-06T18:51:43.584Z,16.85
2022-12-06T18:54:13.766Z,16.98
2022-12-06T18:59:08.824Z,17.70
2022-12-06T19:01:38.823Z,17.77
2022-12-06T19:04:08.551Z,18.65
2022-12-06T19:06:38.045Z,18.00
2022-12-06T19:09:08.014Z,17.63
2022-12-06T19:11:40.227Z,18.35
2022-12-06T19:14:07.931Z,17.52
2022-12-06T19:16:40.833Z,17.02
2022-12-06T19:19:16.270Z,17.83
2022-12-06T19:21:48.257Z,18.17
2022-12-06T19:24:20.210Z,17.55
2022-12-06T19:26:48.953Z,17.83
2022-12-06T19:29:16.462Z,16.15
2022-12-06T19:31:44.172Z,18.40
2022-12-06T19:34:23.769Z,16.67
2022-12-06T19:36:52.550Z,18.67
2022-12-06T19:39:20.331Z,17.60
2022-12-06T19:42:07.478Z,17.95
2022-12-06T19:44:34.894Z,17.95
2022-12-06T19:47:02.258Z,17.73
2022-12-06T19:49:29.404Z,16.48
2022-12-06T19:51:56.467Z,18.98
2022-12-06T19:54:29.664Z,17.67
2022-12-06T19:56:58.564Z,17.52
2022-12-06T19:59:27.746Z,18.65
2022-12-06T20:01:58.233Z,16.67
2022-12-06T20:04:29.171Z,17.70
2022-12-06T20:06:56.685Z,17.50
2022-12-06T20:09:27.109Z,17.90
2022-12-06T20:12:01.497Z,18.15
2022-12-06T20:14:35.384Z,17.50
2022-12-06T20:17:04.595Z,16.83
2022-12-06T20:19:31.666Z,17.88
2022-12-06T20:21:58.735Z,16.58
2022-12-06T20:24:25.878Z,17.75
2022-12-06T20:26:54.799Z,16.45
2022-12-06T20:29:22.877Z,17.48
2022-12-06T20:31:51.437Z,17.80
2022-12-06T20:34:19.070Z,17.45
2022-12-06T20:36:46.377Z,17.83
2022-12-06T20:39:22.082Z,17.55
2022-12-06T20:41:49.864Z,17.38
2022-12-06T20:44:17.917Z,16.65
2022-12-06T20:46:45.632Z,17.25
2022-12-06T20:49:13.042Z,17.73
2022-12-06T20:51:40.262Z,18.10
2022-12-06T20:54:08.013Z,16.13
2022-12-06T20:56:39.218Z,17.52
2022-12-06T20:59:07.494Z,16.73
2022-12-06T21:01:37.143Z,18.05
2022-12-06T21:04:04.326Z,16.77
2022-12-06T21:06:31.675Z,15.68
2022-12-06T21:08:58.750Z,16.50
2022-12-06T21:11:26.380Z,17.35
2022-12-06T21:13:54.966Z,17.65
2022-12-06T21:16:27.927Z,16.65
2022-12-06T21:19:01.375Z,15.90
2022-12-06T21:21:31.401Z,15.98
2022-12-06T21:24:03.438Z,16.95
2022-12-06T21:26:31.575Z,16.25
2022-12-06T21:28:59.131Z,16.63
2022-12-06T21:31:28.857Z,16.38
2022-12-06T21:33:56.696Z,18.10
2022-12-06T21:36:24.145Z,16.88
2022-12-06T21:38:51.637Z,16.60
2022-12-06T21:41:19.214Z,16.30
2022-12-06T21:43:46.431Z,16.05
2022-12-06T21:46:19.944Z,15.60
2022-12-06T21:48:52.036Z,17.25
2022-12-06T21:51:19.859Z,14.77
2022-12-06T21:53:47.015Z,15.25
2022-12-06T21:56:19.355Z,15.40
2022-12-06T21:58:47.039Z,15.32
2022-12-06T22:01:17.022Z,17.23
2022-12-06T22:03:46.977Z,15.15
2022-12-06T22:06:14.117Z,16.15
2022-12-06T22:08:43.071Z,15.20
2022-12-06T22:11:16.721Z,15.77
2022-12-06T22:13:44.686Z,15.40
2022-12-06T22:16:13.622Z,15.32
2022-12-06T22:18:45.349Z,16.38
2022-12-06T22:21:15.968Z,15.32
2022-12-06T22:23:43.607Z,15.75
2022-12-06T22:26:14.477Z,16.45
2022-12-06T22:28:41.615Z,15.20
2022-12-06T22:31:15.248Z,16.23
2022-12-06T22:33:43.059Z,14.98
2022-12-06T22:36:11.455Z,14.80
2022-12-06T22:38:38.617Z,15.52
2022-12-06T22:41:06.701Z,14.63
2022-12-06T22:43:34.299Z,13.18
2022-12-06T22:46:13.300Z,14.30
2022-12-06T22:48:41.656Z,14.77
2022-12-06T22:51:19.614Z,13.82
2022-12-06T22:53:49.160Z,13.82
2022-12-06T22:56:16.268Z,13.88
2022-12-06T22:58:43.591Z,15.40
2022-12-06T23:01:19.365Z,13.63
2022-12-06T23:03:48.628Z,14.00
2022-12-06T23:06:17.259Z,13.15
2022-12-06T23:08:45.043Z,12.98
2022-12-06T23:11:18.355Z,14.05
2022-12-06T23:13:45.841Z,13.75
2022-12-06T23:16:21.888Z,13.30
2022-12-06T23:18:49.737Z,13.13
2022-12-06T23:21:25.141Z,13.27
2022-12-06T23:23:54.372Z,13.60
2022-12-06T23:26:31.033Z,12.93
2022-12-06T23:28:58.132Z,12.73
2022-12-06T23:31:27.783Z,12.65
2022-12-06T23:33:58.161Z,14.07
2022-12-06T23:36:28.392Z,11.77
2022-12-06T23:38:55.503Z,12.88
2022-12-06T23:41:25.752Z,12.77
2022-12-06T23:43:54.219Z,12.73
2022-12-06T23:46:23.853Z,12.23
2022-12-06T23:48:51.465Z,12.10
2022-12-06T23:51:21.439Z,12.18
2022-12-06T23:53:53.838Z,12.05
2022-12-06T23:56:21.964Z,12.00
2022-12-06T23:58:50.650Z,12.27
